Eddyville, Iowa
Current Conditions -  °F | °C
As of 2:35 AM on Friday 31 Oct 2014 (Local Time) from KOOA Reporting Station
Overcast Overcast  
Wind Chill: 33°   Ceiling: 3800
Heat Index: 42°   Visibility: 10mi
Dew Point: 30°   Wind: 23mph
Humidity: 63%   Direction: 350°N
Pressure: 30.25"   Gusts: 35mph
Location:  41.16°N, 92.63°W
Report Text: KOOA 310735Z AUTO 35020G30KT 10SM OVC038 06/M01 A3025 RMK AO2 T00561009
Loading
Personal Weather Stations






























Interactive Weather Map
Tropical Storm Tracking
New forecast layout! Learn more

10-Day Weather Forecast

Advertisements
Track Severe Weather on mobile